sensor_id;sensor_type;location;lat;lon;timestamp;P1;durP1;ratioP1;P2;durP2;ratioP2
11829;SDS011;5972;42.134;24.718;2023-05-10T00:00:59;6.25;;;3.95;;
11829;SDS011;5972;42.134;24.718;2023-05-10T00:03:25;7.80;;;3.97;;
11829;SDS011;5972;42.134;24.718;2023-05-10T00:05:52;6.35;;;3.45;;
11829;SDS011;5972;42.134;24.718;2023-05-10T00:08:20;5.38;;;4.25;;
11829;SDS011;5972;42.134;24.718;2023-05-10T00:10:46;5.82;;;4.40;;
11829;SDS011;5972;42.134;24.718;2023-05-10T00:13:13;3.80;;;3.40;;
11829;SDS011;5972;42.134;24.718;2023-05-10T00:15:39;8.82;;;4.75;;
11829;SDS011;5972;42.134;24.718;2023-05-10T00:18:06;7.20;;;4.47;;
11829;SDS011;5972;42.134;24.718;2023-05-10T00:20:32;4.57;;;4.18;;
11829;SDS011;5972;42.134;24.718;2023-05-10T00:22:59;6.38;;;4.63;;
11829;SDS011;5972;42.134;24.718;2023-05-10T00:25:29;5.63;;;4.63;;
11829;SDS011;5972;42.134;24.718;2023-05-10T00:27:55;4.88;;;4.10;;
11829;SDS011;5972;42.134;24.718;2023-05-10T00:30:22;5.75;;;4.82;;
11829;SDS011;5972;42.134;24.718;2023-05-10T00:32:48;6.68;;;4.75;;
11829;SDS011;5972;42.134;24.718;2023-05-10T00:35:16;8.73;;;4.82;;
11829;SDS011;5972;42.134;24.718;2023-05-10T00:37:43;6.97;;;4.55;;
11829;SDS011;5972;42.134;24.718;2023-05-10T00:40:10;6.47;;;4.40;;
11829;SDS011;5972;42.134;24.718;2023-05-10T00:42:38;7.40;;;4.40;;
11829;SDS011;5972;42.134;24.718;2023-05-10T00:45:05;4.90;;;4.07;;
11829;SDS011;5972;42.134;24.718;2023-05-10T00:47:32;7.38;;;4.68;;
11829;SDS011;5972;42.134;24.718;2023-05-10T00:49:59;7.45;;;4.82;;
11829;SDS011;5972;42.134;24.718;2023-05-10T00:52:26;7.03;;;4.30;;
11829;SDS011;5972;42.134;24.718;2023-05-10T00:54:53;5.60;;;4.05;;
11829;SDS011;5972;42.134;24.718;2023-05-10T00:57:19;5.65;;;4.32;;
11829;SDS011;5972;42.134;24.718;2023-05-10T00:59:49;5.90;;;4.22;;
11829;SDS011;5972;42.134;24.718;2023-05-10T01:02:15;8.63;;;4.78;;
11829;SDS011;5972;42.134;24.718;2023-05-10T01:04:42;5.82;;;4.80;;
11829;SDS011;5972;42.134;24.718;2023-05-10T01:07:09;10.32;;;5.18;;
11829;SDS011;5972;42.134;24.718;2023-05-10T01:09:35;5.95;;;4.72;;
11829;SDS011;5972;42.134;24.718;2023-05-10T01:12:02;6.45;;;4.18;;
11829;SDS011;5972;42.134;24.718;2023-05-10T01:14:32;8.98;;;4.47;;
11829;SDS011;5972;42.134;24.718;2023-05-10T01:16:59;8.30;;;4.32;;
11829;SDS011;5972;42.134;24.718;2023-05-10T01:19:28;7.70;;;5.13;;
11829;SDS011;5972;42.134;24.718;2023-05-10T01:21:58;7.03;;;4.75;;
11829;SDS011;5972;42.134;24.718;2023-05-10T01:24:32;7.00;;;4.45;;
11829;SDS011;5972;42.134;24.718;2023-05-10T01:29:52;5.60;;;5.05;;
11829;SDS011;5972;42.134;24.718;2023-05-10T01:32:29;8.90;;;5.57;;
11829;SDS011;5972;42.134;24.718;2023-05-10T01:34:59;7.03;;;5.68;;
11829;SDS011;5972;42.134;24.718;2023-05-10T01:37:28;10.32;;;5.90;;
11829;SDS011;5972;42.134;24.718;2023-05-10T01:39:59;5.95;;;5.38;;
11829;SDS011;5972;42.134;24.718;2023-05-10T01:42:26;8.10;;;5.80;;
11829;SDS011;5972;42.134;24.718;2023-05-10T01:44:58;7.78;;;6.00;;
11829;SDS011;5972;42.134;24.718;2023-05-10T01:47:27;9.23;;;6.50;;
11829;SDS011;5972;42.134;24.718;2023-05-10T01:49:56;7.20;;;5.85;;
11829;SDS011;5972;42.134;24.718;2023-05-10T01:52:25;9.45;;;7.18;;
11829;SDS011;5972;42.134;24.718;2023-05-10T01:54:53;10.57;;;7.03;;
11829;SDS011;5972;42.134;24.718;2023-05-10T01:57:21;9.07;;;6.85;;
11829;SDS011;5972;42.134;24.718;2023-05-10T01:59:49;10.63;;;6.30;;
11829;SDS011;5972;42.134;24.718;2023-05-10T02:02:16;9.70;;;6.97;;
11829;SDS011;5972;42.134;24.718;2023-05-10T02:04:43;10.43;;;6.85;;
11829;SDS011;5972;42.134;24.718;2023-05-10T02:07:12;8.83;;;6.60;;
11829;SDS011;5972;42.134;24.718;2023-05-10T02:09:40;8.05;;;6.22;;
11829;SDS011;5972;42.134;24.718;2023-05-10T02:12:07;10.18;;;7.30;;
11829;SDS011;5972;42.134;24.718;2023-05-10T02:14:36;11.27;;;7.25;;
11829;SDS011;5972;42.134;24.718;2023-05-10T02:17:03;10.52;;;7.72;;
11829;SDS011;5972;42.134;24.718;2023-05-10T02:19:30;10.63;;;6.93;;
11829;SDS011;5972;42.134;24.718;2023-05-10T02:21:58;12.93;;;7.15;;
11829;SDS011;5972;42.134;24.718;2023-05-10T02:24:27;9.75;;;6.63;;
11829;SDS011;5972;42.134;24.718;2023-05-10T02:26:54;10.73;;;7.60;;
11829;SDS011;5972;42.134;24.718;2023-05-10T02:29:22;11.40;;;7.35;;
11829;SDS011;5972;42.134;24.718;2023-05-10T02:31:48;7.47;;;6.50;;
11829;SDS011;5972;42.134;24.718;2023-05-10T02:34:16;9.10;;;6.90;;
11829;SDS011;5972;42.134;24.718;2023-05-10T02:36:42;9.85;;;6.60;;
11829;SDS011;5972;42.134;24.718;2023-05-10T02:39:09;8.27;;;6.40;;
11829;SDS011;5972;42.134;24.718;2023-05-10T02:41:40;11.02;;;7.60;;
11829;SDS011;5972;42.134;24.718;2023-05-10T02:44:07;9.15;;;6.72;;
11829;SDS011;5972;42.134;24.718;2023-05-10T02:46:34;8.25;;;6.30;;
11829;SDS011;5972;42.134;24.718;2023-05-10T02:49:00;8.80;;;6.35;;
11829;SDS011;5972;42.134;24.718;2023-05-10T02:51:28;8.43;;;6.50;;
11829;SDS011;5972;42.134;24.718;2023-05-10T02:53:56;9.77;;;7.15;;
11829;SDS011;5972;42.134;24.718;2023-05-10T02:56:24;8.88;;;6.82;;
11829;SDS011;5972;42.134;24.718;2023-05-10T02:58:53;8.25;;;6.70;;
11829;SDS011;5972;42.134;24.718;2023-05-10T03:01:19;7.13;;;5.53;;
11829;SDS011;5972;42.134;24.718;2023-05-10T03:03:46;11.90;;;7.00;;
11829;SDS011;5972;42.134;24.718;2023-05-10T03:06:12;10.98;;;6.88;;
11829;SDS011;5972;42.134;24.718;2023-05-10T03:08:41;11.77;;;6.93;;
11829;SDS011;5972;42.134;24.718;2023-05-10T03:11:16;10.43;;;6.60;;
11829;SDS011;5972;42.134;24.718;2023-05-10T03:13:49;10.80;;;6.85;;
11829;SDS011;5972;42.134;24.718;2023-05-10T03:16:24;9.40;;;6.65;;
11829;SDS011;5972;42.134;24.718;2023-05-10T03:18:54;8.05;;;6.15;;
11829;SDS011;5972;42.134;24.718;2023-05-10T03:21:22;8.45;;;5.72;;
11829;SDS011;5972;42.134;24.718;2023-05-10T03:23:53;10.40;;;6.38;;
11829;SDS011;5972;42.134;24.718;2023-05-10T03:26:23;7.10;;;5.85;;
11829;SDS011;5972;42.134;24.718;2023-05-10T03:28:50;9.40;;;6.80;;
11829;SDS011;5972;42.134;24.718;2023-05-10T03:31:18;11.05;;;6.35;;
11829;SDS011;5972;42.134;24.718;2023-05-10T03:33:49;11.77;;;6.55;;
11829;SDS011;5972;42.134;24.718;2023-05-10T03:36:16;8.70;;;6.30;;
11829;SDS011;5972;42.134;24.718;2023-05-10T03:38:42;6.47;;;5.72;;
11829;SDS011;5972;42.134;24.718;2023-05-10T03:41:09;10.10;;;6.45;;
11829;SDS011;5972;42.134;24.718;2023-05-10T03:43:35;8.13;;;6.30;;
11829;SDS011;5972;42.134;24.718;2023-05-10T03:46:02;8.80;;;5.68;;
11829;SDS011;5972;42.134;24.718;2023-05-10T03:48:28;6.82;;;6.18;;
11829;SDS011;5972;42.134;24.718;2023-05-10T03:50:56;7.05;;;5.53;;
11829;SDS011;5972;42.134;24.718;2023-05-10T03:53:23;6.57;;;5.90;;
11829;SDS011;5972;42.134;24.718;2023-05-10T03:55:50;8.13;;;6.07;;
11829;SDS011;5972;42.134;24.718;2023-05-10T03:58:16;11.98;;;6.90;;
11829;SDS011;5972;42.134;24.718;2023-05-10T04:00:43;7.53;;;5.85;;
11829;SDS011;5972;42.134;24.718;2023-05-10T04:03:10;7.45;;;6.00;;
11829;SDS011;5972;42.134;24.718;2023-05-10T04:05:37;12.70;;;6.65;;
11829;SDS011;5972;42.134;24.718;2023-05-10T04:08:05;9.63;;;6.45;;
11829;SDS011;5972;42.134;24.718;2023-05-10T04:10:31;8.60;;;5.82;;
11829;SDS011;5972;42.134;24.718;2023-05-10T04:12:58;8.02;;;5.93;;
11829;SDS011;5972;42.134;24.718;2023-05-10T04:15:24;10.05;;;6.15;;
11829;SDS011;5972;42.134;24.718;2023-05-10T04:17:51;7.53;;;5.78;;
11829;SDS011;5972;42.134;24.718;2023-05-10T04:20:18;10.13;;;5.80;;
11829;SDS011;5972;42.134;24.718;2023-05-10T04:22:45;7.38;;;5.60;;
11829;SDS011;5972;42.134;24.718;2023-05-10T04:25:13;8.15;;;6.07;;
11829;SDS011;5972;42.134;24.718;2023-05-10T04:27:39;9.37;;;5.50;;
11829;SDS011;5972;42.134;24.718;2023-05-10T04:30:07;13.40;;;6.93;;
11829;SDS011;5972;42.134;24.718;2023-05-10T04:32:33;15.43;;;8.60;;
11829;SDS011;5972;42.134;24.718;2023-05-10T04:35:00;13.30;;;7.93;;
11829;SDS011;5972;42.134;24.718;2023-05-10T04:37:28;17.77;;;10.13;;
11829;SDS011;5972;42.134;24.718;2023-05-10T04:39:55;17.40;;;10.43;;
11829;SDS011;5972;42.134;24.718;2023-05-10T04:42:22;7.18;;;6.47;;
11829;SDS011;5972;42.134;24.718;2023-05-10T04:44:49;7.65;;;5.90;;
11829;SDS011;5972;42.134;24.718;2023-05-10T04:47:16;7.68;;;6.38;;
11829;SDS011;5972;42.134;24.718;2023-05-10T04:49:43;9.13;;;5.47;;
11829;SDS011;5972;42.134;24.718;2023-05-10T04:52:09;12.20;;;6.30;;
11829;SDS011;5972;42.134;24.718;2023-05-10T04:54:36;9.95;;;5.03;;
11829;SDS011;5972;42.134;24.718;2023-05-10T04:57:03;7.25;;;5.82;;
11829;SDS011;5972;42.134;24.718;2023-05-10T04:59:30;18.13;;;6.78;;
11829;SDS011;5972;42.134;24.718;2023-05-10T05:01:57;8.90;;;5.78;;
11829;SDS011;5972;42.134;24.718;2023-05-10T05:04:23;8.77;;;6.53;;
11829;SDS011;5972;42.134;24.718;2023-05-10T05:06:50;9.70;;;6.10;;
11829;SDS011;5972;42.134;24.718;2023-05-10T05:09:16;8.48;;;5.47;;
11829;SDS011;5972;42.134;24.718;2023-05-10T05:11:43;10.88;;;5.75;;
11829;SDS011;5972;42.134;24.718;2023-05-10T05:14:09;7.40;;;5.80;;
11829;SDS011;5972;42.134;24.718;2023-05-10T05:16:37;10.45;;;5.95;;
11829;SDS011;5972;42.134;24.718;2023-05-10T05:19:04;7.55;;;5.57;;
11829;SDS011;5972;42.134;24.718;2023-05-10T05:21:30;6.85;;;5.60;;
11829;SDS011;5972;42.134;24.718;2023-05-10T05:23:57;6.28;;;4.93;;
11829;SDS011;5972;42.134;24.718;2023-05-10T05:26:24;10.90;;;5.40;;
11829;SDS011;5972;42.134;24.718;2023-05-10T05:28:50;7.35;;;5.53;;
11829;SDS011;5972;42.134;24.718;2023-05-10T05:31:19;15.02;;;6.28;;
11829;SDS011;5972;42.134;24.718;2023-05-10T05:33:47;9.50;;;5.85;;
11829;SDS011;5972;42.134;24.718;2023-05-10T05:36:14;10.15;;;6.10;;
11829;SDS011;5972;42.134;24.718;2023-05-10T05:38:40;8.63;;;6.13;;
11829;SDS011;5972;42.134;24.718;2023-05-10T05:41:08;7.43;;;6.20;;
11829;SDS011;5972;42.134;24.718;2023-05-10T05:43:34;9.73;;;6.15;;
11829;SDS011;5972;42.134;24.718;2023-05-10T05:46:01;12.35;;;6.68;;
11829;SDS011;5972;42.134;24.718;2023-05-10T05:48:29;9.55;;;7.20;;
11829;SDS011;5972;42.134;24.718;2023-05-10T05:50:57;7.50;;;6.47;;
11829;SDS011;5972;42.134;24.718;2023-05-10T05:53:23;9.35;;;6.88;;
11829;SDS011;5972;42.134;24.718;2023-05-10T05:55:53;7.95;;;6.40;;
11829;SDS011;5972;42.134;24.718;2023-05-10T05:58:20;13.13;;;7.38;;
11829;SDS011;5972;42.134;24.718;2023-05-10T06:00:46;11.57;;;8.18;;
11829;SDS011;5972;42.134;24.718;2023-05-10T06:03:13;10.23;;;7.55;;
11829;SDS011;5972;42.134;24.718;2023-05-10T06:05:39;10.85;;;6.90;;
11829;SDS011;5972;42.134;24.718;2023-05-10T06:08:07;12.18;;;8.52;;
11829;SDS011;5972;42.134;24.718;2023-05-10T06:10:34;11.13;;;8.10;;
11829;SDS011;5972;42.134;24.718;2023-05-10T06:13:00;9.25;;;7.00;;
11829;SDS011;5972;42.134;24.718;2023-05-10T06:15:27;9.00;;;6.25;;
11829;SDS011;5972;42.134;24.718;2023-05-10T06:17:53;8.43;;;6.57;;
11829;SDS011;5972;42.134;24.718;2023-05-10T06:20:20;9.13;;;6.35;;
11829;SDS011;5972;42.134;24.718;2023-05-10T06:22:46;9.82;;;5.50;;
11829;SDS011;5972;42.134;24.718;2023-05-10T06:25:14;8.52;;;6.20;;
11829;SDS011;5972;42.134;24.718;2023-05-10T06:27:43;15.82;;;6.88;;
11829;SDS011;5972;42.134;24.718;2023-05-10T06:30:09;9.90;;;6.40;;
11829;SDS011;5972;42.134;24.718;2023-05-10T06:32:38;11.05;;;7.05;;
11829;SDS011;5972;42.134;24.718;2023-05-10T06:35:05;8.30;;;5.68;;
11829;SDS011;5972;42.134;24.718;2023-05-10T06:37:31;9.73;;;5.43;;
11829;SDS011;5972;42.134;24.718;2023-05-10T06:39:58;7.93;;;5.07;;
11829;SDS011;5972;42.134;24.718;2023-05-10T06:42:28;7.38;;;4.50;;
11829;SDS011;5972;42.134;24.718;2023-05-10T06:44:55;7.30;;;5.00;;
11829;SDS011;5972;42.134;24.718;2023-05-10T06:47:21;6.53;;;4.95;;
11829;SDS011;5972;42.134;24.718;2023-05-10T06:49:48;9.63;;;5.28;;
11829;SDS011;5972;42.134;24.718;2023-05-10T06:52:14;7.68;;;4.70;;
11829;SDS011;5972;42.134;24.718;2023-05-10T06:54:41;6.68;;;4.50;;
11829;SDS011;5972;42.134;24.718;2023-05-10T06:57:07;5.03;;;4.50;;
11829;SDS011;5972;42.134;24.718;2023-05-10T06:59:35;6.68;;;4.50;;
11829;SDS011;5972;42.134;24.718;2023-05-10T07:02:02;6.15;;;5.10;;
11829;SDS011;5972;42.134;24.718;2023-05-10T07:04:28;6.97;;;4.80;;
11829;SDS011;5972;42.134;24.718;2023-05-10T07:06:55;6.65;;;4.78;;
11829;SDS011;5972;42.134;24.718;2023-05-10T07:09:22;6.82;;;4.40;;
11829;SDS011;5972;42.134;24.718;2023-05-10T07:11:49;6.90;;;4.85;;
11829;SDS011;5972;42.134;24.718;2023-05-10T07:14:16;8.52;;;5.05;;
11829;SDS011;5972;42.134;24.718;2023-05-10T07:16:44;7.18;;;4.53;;
11829;SDS011;5972;42.134;24.718;2023-05-10T07:19:10;9.60;;;4.13;;
11829;SDS011;5972;42.134;24.718;2023-05-10T07:21:37;11.88;;;4.82;;
11829;SDS011;5972;42.134;24.718;2023-05-10T07:24:05;7.10;;;4.63;;
11829;SDS011;5972;42.134;24.718;2023-05-10T07:26:32;8.13;;;4.10;;
11829;SDS011;5972;42.134;24.718;2023-05-10T07:28:58;7.45;;;3.90;;
11829;SDS011;5972;42.134;24.718;2023-05-10T07:31:25;6.28;;;4.15;;
11829;SDS011;5972;42.134;24.718;2023-05-10T07:33:52;9.40;;;4.20;;
11829;SDS011;5972;42.134;24.718;2023-05-10T07:36:19;5.57;;;4.45;;
11829;SDS011;5972;42.134;24.718;2023-05-10T07:38:45;8.35;;;3.95;;
11829;SDS011;5972;42.134;24.718;2023-05-10T07:41:12;8.20;;;4.10;;
11829;SDS011;5972;42.134;24.718;2023-05-10T07:43:38;5.85;;;4.13;;
11829;SDS011;5972;42.134;24.718;2023-05-10T07:46:05;5.88;;;4.32;;
11829;SDS011;5972;42.134;24.718;2023-05-10T07:48:31;8.25;;;4.03;;
11829;SDS011;5972;42.134;24.718;2023-05-10T07:50:59;10.27;;;3.92;;
11829;SDS011;5972;42.134;24.718;2023-05-10T07:53:26;4.30;;;3.58;;
11829;SDS011;5972;42.134;24.718;2023-05-10T07:55:53;8.23;;;3.83;;
11829;SDS011;5972;42.134;24.718;2023-05-10T07:58:20;6.95;;;4.05;;
11829;SDS011;5972;42.134;24.718;2023-05-10T08:00:46;3.75;;;3.45;;
11829;SDS011;5972;42.134;24.718;2023-05-10T08:03:14;4.70;;;3.60;;
11829;SDS011;5972;42.134;24.718;2023-05-10T08:05:40;6.45;;;4.00;;
11829;SDS011;5972;42.134;24.718;2023-05-10T08:08:08;6.43;;;3.42;;
11829;SDS011;5972;42.134;24.718;2023-05-10T08:10:35;5.18;;;4.05;;
11829;SDS011;5972;42.134;24.718;2023-05-10T08:13:01;9.25;;;5.68;;
11829;SDS011;5972;42.134;24.718;2023-05-10T08:15:27;7.97;;;3.78;;
11829;SDS011;5972;42.134;24.718;2023-05-10T08:17:54;5.00;;;3.45;;
11829;SDS011;5972;42.134;24.718;2023-05-10T08:20:20;7.90;;;3.70;;
11829;SDS011;5972;42.134;24.718;2023-05-10T08:22:47;5.50;;;3.35;;
11829;SDS011;5972;42.134;24.718;2023-05-10T08:25:16;4.97;;;3.47;;
11829;SDS011;5972;42.134;24.718;2023-05-10T08:27:42;4.45;;;3.10;;
11829;SDS011;5972;42.134;24.718;2023-05-10T08:30:09;6.78;;;3.67;;
11829;SDS011;5972;42.134;24.718;2023-05-10T08:32:35;5.75;;;3.55;;
11829;SDS011;5972;42.134;24.718;2023-05-10T08:35:03;5.47;;;3.65;;
11829;SDS011;5972;42.134;24.718;2023-05-10T08:37:30;4.03;;;3.20;;
11829;SDS011;5972;42.134;24.718;2023-05-10T08:39:57;6.18;;;3.25;;
11829;SDS011;5972;42.134;24.718;2023-05-10T08:42:25;7.47;;;3.40;;
11829;SDS011;5972;42.134;24.718;2023-05-10T08:44:54;3.63;;;3.28;;
11829;SDS011;5972;42.134;24.718;2023-05-10T08:47:21;6.53;;;3.20;;
11829;SDS011;5972;42.134;24.718;2023-05-10T08:49:48;3.53;;;3.22;;
11829;SDS011;5972;42.134;24.718;2023-05-10T08:52:16;6.70;;;3.22;;
11829;SDS011;5972;42.134;24.718;2023-05-10T08:54:43;5.38;;;3.17;;
11829;SDS011;5972;42.134;24.718;2023-05-10T08:57:10;4.72;;;3.72;;
11829;SDS011;5972;42.134;24.718;2023-05-10T08:59:38;5.75;;;3.15;;
11829;SDS011;5972;42.134;24.718;2023-05-10T09:02:05;5.45;;;3.60;;
11829;SDS011;5972;42.134;24.718;2023-05-10T09:04:31;4.28;;;3.15;;
11829;SDS011;5972;42.134;24.718;2023-05-10T09:06:58;3.88;;;3.58;;
11829;SDS011;5972;42.134;24.718;2023-05-10T09:09:24;3.95;;;3.65;;
11829;SDS011;5972;42.134;24.718;2023-05-10T09:11:51;4.97;;;3.78;;
11829;SDS011;5972;42.134;24.718;2023-05-10T09:14:18;5.10;;;4.53;;
11829;SDS011;5972;42.134;24.718;2023-05-10T09:16:47;5.50;;;3.63;;
11829;SDS011;5972;42.134;24.718;2023-05-10T09:19:14;4.53;;;3.78;;
11829;SDS011;5972;42.134;24.718;2023-05-10T09:21:41;7.13;;;4.03;;
11829;SDS011;5972;42.134;24.718;2023-05-10T09:24:07;6.45;;;4.00;;
11829;SDS011;5972;42.134;24.718;2023-05-10T09:26:34;6.13;;;3.67;;
11829;SDS011;5972;42.134;24.718;2023-05-10T09:29:02;4.70;;;3.75;;
11829;SDS011;5972;42.134;24.718;2023-05-10T09:31:43;4.68;;;3.40;;
11829;SDS011;5972;42.134;24.718;2023-05-10T09:34:11;3.78;;;3.25;;
11829;SDS011;5972;42.134;24.718;2023-05-10T09:36:49;3.72;;;2.97;;
11829;SDS011;5972;42.134;24.718;2023-05-10T09:39:16;6.40;;;3.58;;
11829;SDS011;5972;42.134;24.718;2023-05-10T09:41:43;7.15;;;3.60;;
11829;SDS011;5972;42.134;24.718;2023-05-10T09:44:10;4.55;;;3.80;;
11829;SDS011;5972;42.134;24.718;2023-05-10T09:46:36;6.60;;;3.88;;
11829;SDS011;5972;42.134;24.718;2023-05-10T09:49:03;4.85;;;3.50;;
11829;SDS011;5972;42.134;24.718;2023-05-10T09:51:31;6.40;;;3.45;;
11829;SDS011;5972;42.134;24.718;2023-05-10T09:54:08;3.85;;;3.50;;
11829;SDS011;5972;42.134;24.718;2023-05-10T09:56:35;4.20;;;3.45;;
11829;SDS011;5972;42.134;24.718;2023-05-10T09:59:04;5.22;;;2.92;;
11829;SDS011;5972;42.134;24.718;2023-05-10T10:01:33;6.93;;;3.20;;
11829;SDS011;5972;42.134;24.718;2023-05-10T10:04:02;7.97;;;3.80;;
11829;SDS011;5972;42.134;24.718;2023-05-10T10:06:30;4.47;;;3.10;;
11829;SDS011;5972;42.134;24.718;2023-05-10T10:09:06;6.93;;;3.85;;
11829;SDS011;5972;42.134;24.718;2023-05-10T10:11:33;3.85;;;3.45;;
11829;SDS011;5972;42.134;24.718;2023-05-10T10:14:03;4.32;;;3.70;;
11829;SDS011;5972;42.134;24.718;2023-05-10T10:16:30;4.32;;;2.97;;
11829;SDS011;5972;42.134;24.718;2023-05-10T10:18:56;4.07;;;3.17;;
11829;SDS011;5972;42.134;24.718;2023-05-10T10:21:23;3.95;;;3.30;;
11829;SDS011;5972;42.134;24.718;2023-05-10T10:23:51;3.25;;;2.95;;
11829;SDS011;5972;42.134;24.718;2023-05-10T10:26:18;3.67;;;3.28;;
11829;SDS011;5972;42.134;24.718;2023-05-10T10:28:49;3.45;;;2.97;;
11829;SDS011;5972;42.134;24.718;2023-05-10T10:31:19;3.25;;;2.97;;
11829;SDS011;5972;42.134;24.718;2023-05-10T10:33:55;2.78;;;2.58;;
11829;SDS011;5972;42.134;24.718;2023-05-10T10:36:23;5.78;;;3.47;;
11829;SDS011;5972;42.134;24.718;2023-05-10T10:38:56;3.15;;;2.88;;
11829;SDS011;5972;42.134;24.718;2023-05-10T10:41:29;5.65;;;3.38;;
11829;SDS011;5972;42.134;24.718;2023-05-10T10:49:24;6.75;;;3.85;;
11829;SDS011;5972;42.134;24.718;2023-05-10T10:54:38;5.13;;;2.95;;
11829;SDS011;5972;42.134;24.718;2023-05-10T10:57:12;5.72;;;3.20;;
11829;SDS011;5972;42.134;24.718;2023-05-10T10:59:42;4.28;;;3.05;;
11829;SDS011;5972;42.134;24.718;2023-05-10T11:02:09;5.57;;;3.40;;
11829;SDS011;5972;42.134;24.718;2023-05-10T11:04:42;4.03;;;2.85;;
11829;SDS011;5972;42.134;24.718;2023-05-10T11:07:17;4.85;;;2.97;;
11829;SDS011;5972;42.134;24.718;2023-05-10T11:09:45;4.93;;;3.40;;
11829;SDS011;5972;42.134;24.718;2023-05-10T11:12:12;4.32;;;3.10;;
11829;SDS011;5972;42.134;24.718;2023-05-10T11:14:40;5.85;;;3.65;;
11829;SDS011;5972;42.134;24.718;2023-05-10T11:17:22;2.60;;;2.40;;
11829;SDS011;5972;42.134;24.718;2023-05-10T11:20:07;4.78;;;3.47;;
11829;SDS011;5972;42.134;24.718;2023-05-10T11:22:48;7.03;;;3.85;;
11829;SDS011;5972;42.134;24.718;2023-05-10T11:25:18;5.25;;;3.30;;
11829;SDS011;5972;42.134;24.718;2023-05-10T11:27:45;4.13;;;3.70;;
11829;SDS011;5972;42.134;24.718;2023-05-10T11:30:13;5.00;;;3.55;;
11829;SDS011;5972;42.134;24.718;2023-05-10T11:32:40;3.70;;;3.08;;
11829;SDS011;5972;42.134;24.718;2023-05-10T11:35:09;3.35;;;2.50;;
11829;SDS011;5972;42.134;24.718;2023-05-10T11:37:38;5.13;;;2.92;;
11829;SDS011;5972;42.134;24.718;2023-05-10T11:40:09;3.95;;;3.17;;
11829;SDS011;5972;42.134;24.718;2023-05-10T11:42:37;3.72;;;3.15;;
11829;SDS011;5972;42.134;24.718;2023-05-10T11:45:04;3.40;;;2.72;;
11829;SDS011;5972;42.134;24.718;2023-05-10T11:47:31;2.60;;;2.40;;
11829;SDS011;5972;42.134;24.718;2023-05-10T11:49:58;6.80;;;2.97;;
11829;SDS011;5972;42.134;24.718;2023-05-10T11:52:25;3.13;;;2.83;;
11829;SDS011;5972;42.134;24.718;2023-05-10T11:54:51;5.95;;;3.15;;
11829;SDS011;5972;42.134;24.718;2023-05-10T11:57:18;3.35;;;3.05;;
11829;SDS011;5972;42.134;24.718;2023-05-10T11:59:49;6.57;;;3.00;;
11829;SDS011;5972;42.134;24.718;2023-05-10T12:02:19;2.78;;;2.58;;
11829;SDS011;5972;42.134;24.718;2023-05-10T12:04:45;3.40;;;3.10;;
11829;SDS011;5972;42.134;24.718;2023-05-10T12:07:12;3.15;;;2.95;;
11829;SDS011;5972;42.134;24.718;2023-05-10T12:09:41;3.38;;;3.08;;
11829;SDS011;5972;42.134;24.718;2023-05-10T12:12:08;5.68;;;3.30;;
11829;SDS011;5972;42.134;24.718;2023-05-10T12:14:34;8.20;;;3.50;;
11829;SDS011;5972;42.134;24.718;2023-05-10T12:17:02;4.00;;;2.85;;
11829;SDS011;5972;42.134;24.718;2023-05-10T12:19:36;4.07;;;3.00;;
11829;SDS011;5972;42.134;24.718;2023-05-10T12:22:04;4.65;;;3.00;;
11829;SDS011;5972;42.134;24.718;2023-05-10T12:24:30;3.72;;;3.38;;
11829;SDS011;5972;42.134;24.718;2023-05-10T12:26:59;6.32;;;3.30;;
11829;SDS011;5972;42.134;24.718;2023-05-10T12:29:26;7.13;;;3.83;;
11829;SDS011;5972;42.134;24.718;2023-05-10T12:31:57;4.80;;;3.28;;
11829;SDS011;5972;42.134;24.718;2023-05-10T12:34:26;4.72;;;3.63;;
11829;SDS011;5972;42.134;24.718;2023-05-10T12:36:53;4.18;;;3.78;;
11829;SDS011;5972;42.134;24.718;2023-05-10T12:39:19;4.05;;;3.67;;
11829;SDS011;5972;42.134;24.718;2023-05-10T12:41:46;8.18;;;4.25;;
11829;SDS011;5972;42.134;24.718;2023-05-10T12:44:12;5.57;;;4.07;;
11829;SDS011;5972;42.134;24.718;2023-05-10T12:46:39;6.20;;;4.10;;
11829;SDS011;5972;42.134;24.718;2023-05-10T12:49:05;4.28;;;3.97;;
11829;SDS011;5972;42.134;24.718;2023-05-10T12:51:33;7.35;;;4.82;;
11829;SDS011;5972;42.134;24.718;2023-05-10T12:54:01;5.85;;;5.28;;
11829;SDS011;5972;42.134;24.718;2023-05-10T12:56:28;7.20;;;4.50;;
11829;SDS011;5972;42.134;24.718;2023-05-10T12:58:54;6.38;;;4.72;;
11829;SDS011;5972;42.134;24.718;2023-05-10T13:01:21;5.55;;;4.88;;
11829;SDS011;5972;42.134;24.718;2023-05-10T13:03:47;4.88;;;4.47;;
11829;SDS011;5972;42.134;24.718;2023-05-10T13:06:14;4.97;;;4.40;;
11829;SDS011;5972;42.134;24.718;2023-05-10T13:08:41;6.50;;;4.80;;
11829;SDS011;5972;42.134;24.718;2023-05-10T13:11:08;7.68;;;4.57;;
11829;SDS011;5972;42.134;24.718;2023-05-10T13:13:35;5.70;;;4.63;;
11829;SDS011;5972;42.134;24.718;2023-05-10T13:16:01;7.63;;;5.18;;
11829;SDS011;5972;42.134;24.718;2023-05-10T13:18:27;5.43;;;4.07;;
11829;SDS011;5972;42.134;24.718;2023-05-10T13:20:54;4.70;;;4.30;;
11829;SDS011;5972;42.134;24.718;2023-05-10T13:23:21;5.03;;;4.55;;
11829;SDS011;5972;42.134;24.718;2023-05-10T13:25:49;9.65;;;5.07;;
11829;SDS011;5972;42.134;24.718;2023-05-10T13:28:15;5.18;;;4.78;;
11829;SDS011;5972;42.134;24.718;2023-05-10T13:30:42;5.68;;;5.18;;
11829;SDS011;5972;42.134;24.718;2023-05-10T13:33:08;9.77;;;5.00;;
11829;SDS011;5972;42.134;24.718;2023-05-10T13:35:35;7.43;;;4.97;;
11829;SDS011;5972;42.134;24.718;2023-05-10T13:38:01;5.38;;;4.45;;
11829;SDS011;5972;42.134;24.718;2023-05-10T13:40:28;7.15;;;4.82;;
11829;SDS011;5972;42.134;24.718;2023-05-10T13:42:56;6.82;;;4.78;;
11829;SDS011;5972;42.134;24.718;2023-05-10T13:45:22;6.10;;;4.50;;
11829;SDS011;5972;42.134;24.718;2023-05-10T13:47:48;7.20;;;4.70;;
11829;SDS011;5972;42.134;24.718;2023-05-10T13:50:15;7.57;;;4.95;;
11829;SDS011;5972;42.134;24.718;2023-05-10T13:52:42;5.82;;;5.28;;
11829;SDS011;5972;42.134;24.718;2023-05-10T13:55:08;5.35;;;4.90;;
11829;SDS011;5972;42.134;24.718;2023-05-10T13:57:39;8.93;;;5.47;;
11829;SDS011;5972;42.134;24.718;2023-05-10T14:00:08;6.38;;;5.25;;
11829;SDS011;5972;42.134;24.718;2023-05-10T14:02:34;6.13;;;5.63;;
11829;SDS011;5972;42.134;24.718;2023-05-10T14:05:01;7.15;;;5.20;;
11829;SDS011;5972;42.134;24.718;2023-05-10T14:07:28;6.38;;;5.70;;
11829;SDS011;5972;42.134;24.718;2023-05-10T14:09:54;8.30;;;5.80;;
11829;SDS011;5972;42.134;24.718;2023-05-10T14:12:21;6.43;;;5.90;;
11829;SDS011;5972;42.134;24.718;2023-05-10T14:14:47;6.45;;;5.85;;
11829;SDS011;5972;42.134;24.718;2023-05-10T14:17:15;6.85;;;5.32;;
11829;SDS011;5972;42.134;24.718;2023-05-10T14:19:42;7.68;;;5.95;;
11829;SDS011;5972;42.134;24.718;2023-05-10T14:22:08;7.32;;;6.63;;
11829;SDS011;5972;42.134;24.718;2023-05-10T14:24:35;5.50;;;5.05;;
11829;SDS011;5972;42.134;24.718;2023-05-10T14:27:01;8.55;;;5.00;;
11829;SDS011;5972;42.134;24.718;2023-05-10T14:29:28;10.93;;;4.82;;
11829;SDS011;5972;42.134;24.718;2023-05-10T14:31:54;5.53;;;4.93;;
11829;SDS011;5972;42.134;24.718;2023-05-10T14:34:22;6.05;;;3.95;;
11829;SDS011;5972;42.134;24.718;2023-05-10T14:36:49;4.35;;;4.00;;
11829;SDS011;5972;42.134;24.718;2023-05-10T14:39:17;7.85;;;5.85;;
11829;SDS011;5972;42.134;24.718;2023-05-10T14:41:44;7.65;;;5.60;;
11829;SDS011;5972;42.134;24.718;2023-05-10T14:44:12;5.97;;;5.40;;
11829;SDS011;5972;42.134;24.718;2023-05-10T14:46:39;5.10;;;4.60;;
11829;SDS011;5972;42.134;24.718;2023-05-10T14:49:06;5.40;;;4.78;;
11829;SDS011;5972;42.134;24.718;2023-05-10T14:51:34;6.80;;;5.03;;
11829;SDS011;5972;42.134;24.718;2023-05-10T14:54:01;5.63;;;4.32;;
11829;SDS011;5972;42.134;24.718;2023-05-10T14:56:28;7.38;;;4.82;;
11829;SDS011;5972;42.134;24.718;2023-05-10T14:58:55;6.28;;;4.30;;